Archival Weather

NSFA McMurdo Sound

NSFA McMurdo Sound, Antarctica (NZCM)

Report from: Saturday, February 24, 2024 12:55 PM UTC
Current time: Friday, June 14, 2024 12:22 PM UTC

Current weather – Weather history – Daily summaries
Weather forecast

Temperature-16.1°C (3.0°F)
Wind chill-23.0°C (-9.3°F)
Dew point-30.7°C (-23.3°F)
Winds 6 kts (3.1 m/s, 6.9 mph) East-Northeast (70°)
Visibility6.2 mi. (10 km)
Clouds Sky clear
Altimeter29.17 in.Hg (988 mB)
Relative humidity27 %
Density altitude-6,462 ft. (-1,970 m)
Sea-level pressure108.8 kPa (1088 mB, 32.14 in.Hg)
Remarks Fully automated report
Automated weather observing station with precipitation discriminator
Flight conditions Visual Meteorological Conditions
Raw dataNZCM 241255Z AUTO 07006KT 9999 CLR M16/M31 A2917 RMK AO2 SLP884 T11611307
An error has occurred. This application may no longer respond until reloaded. Reload 🗙